Oakland, New Jersey
Current Conditions -  °F | °C
As of 12:53 AM on Monday 22 Dec 2014 (Local Time) from KCDW Reporting Station
Overcast Overcast  
Wind Chill: 33°   Ceiling: 1400
Heat Index: 33°   Visibility: 10mi
Dew Point: 28°   Wind: 0mph
Humidity: 82%   Direction: NA
Pressure: 30.33"   Gusts: NA
Location:  41.02°N, 74.24°W
Report Text: KCDW 220553Z AUTO 00000KT 10SM OVC014 01/M02 A3033 RMK AO2 SLP278 60000 T00061022 10011 20006 58003 TSNO
Loading
Personal Weather Stations






























Interactive Weather Map New forecast layout! Learn more

10-Day Weather Forecast

Advertisements
Track Severe Weather on mobile